Strona główna
METAR-TAF:

METAR-TAF

Lotnisko :

Afonsos

Rio de Janeiro, Rio de Janeiro, Brazylia

Szerokość geograficzna: 22-52S, Długość geograficzna: 043-22W, wysokość: 34 m

Aktualna obserwacja pogody

Raport powstał 3 godziny i 29 minut temu, godzina 22:00 UTC
Wiatr 7 kt od zachód
Temperatura 27°C
Wilgotność 70%
Ciśnienie 1014 hPa
Widzialność 10 km lub więcej
Rozproszone chmury na wysokości 4000 ft

METAR: SBAF 122200Z 28007KT 9999 SCT040 27/21 Q1014

czas: 22:29 (01:29 UTC)

Prognoza

Raport powstał 4 godziny i 29 minut temu, godzina 21:00 UTC
Prognoza ważna od 13 godzina 00 UTC do 13 godzina 12 UTC
Wiatr 5 kt od wschodnio-południowy wschód
Widzialność 10 km lub więcej
Rozproszone chmury na wysokości 2000 ft

TAF: SBAF 122100Z 1300/1312 12005KT 9999 SCT020 TX25/1300Z TN21/1305Z RMK PEA

Obserwacja i prognoza pogody dla ponad 4000 lotnisk (raport METAR i TAF).

Dostępne stacje oznaczono żółtymi i czerwonymi punktami na mapie.

Najedź kursorem aby zobaczyć nazwę stacji.

Kliknij aby zobaczyć obserwacje i prognozy pogody.

Aby zmienić mapę: kliknij na zielony przycisk z czarnym krzyżykiem, aby powiększyć; na zielony przycisk z myślnikiem, aby pomniejszyć; na zielone strzałki, aby przejść do map sąsiednich.


METAR-TAF: